createdAt,value
2022-10-01T00:00:21.535Z,58.04
2022-10-01T00:03:11.657Z,58.16
2022-10-01T00:05:40.917Z,58.17
2022-10-01T00:08:09.853Z,58.36
2022-10-01T00:10:43.481Z,58.34
2022-10-01T00:13:12.523Z,58.44
2022-10-01T00:15:42.026Z,58.47
2022-10-01T00:18:11.058Z,58.50
2022-10-01T00:20:43.178Z,58.36
2022-10-01T00:23:12.143Z,58.40
2022-10-01T00:25:42.424Z,58.40
2022-10-01T00:28:11.951Z,58.33
2022-10-01T00:30:47.856Z,58.45
2022-10-01T00:33:16.821Z,58.52
2022-10-01T00:35:45.736Z,58.58
2022-10-01T00:38:15.096Z,58.75
2022-10-01T00:40:44.152Z,58.89
2022-10-01T00:43:23.893Z,58.87
2022-10-01T00:45:55.963Z,59.02
2022-10-01T00:48:28.155Z,59.12
2022-10-01T00:50:58.733Z,59.19
2022-10-01T00:53:28.193Z,59.17
2022-10-01T00:55:59.643Z,59.22
2022-10-01T00:58:29.507Z,59.23
2022-10-01T01:00:58.849Z,59.29
2022-10-01T01:03:28.323Z,59.37
2022-10-01T01:05:57.449Z,59.25
2022-10-01T01:08:26.845Z,59.41
2022-10-01T01:11:04.209Z,59.67
2022-10-01T01:13:44.306Z,59.70
2022-10-01T01:16:19.861Z,59.63
2022-10-01T01:19:00.050Z,59.53
2022-10-01T01:21:33.235Z,59.62
2022-10-01T01:24:34.969Z,59.63
2022-10-01T01:27:24.912Z,59.70
2022-10-01T01:29:59.712Z,59.58
2022-10-01T01:32:36.177Z,59.72
2022-10-01T01:35:08.312Z,59.76
2022-10-01T01:37:44.644Z,59.85
2022-10-01T01:40:17.314Z,60.11
2022-10-01T01:42:49.217Z,60.44
2022-10-01T01:45:23.214Z,60.38
2022-10-01T01:47:56.127Z,60.66
2022-10-01T01:50:28.039Z,60.80
2022-10-01T01:52:59.311Z,60.78
2022-10-01T01:55:31.465Z,60.94
2022-10-01T01:58:00.750Z,60.96
2022-10-01T02:00:30.119Z,61.06
2022-10-01T02:02:59.519Z,60.98
2022-10-01T02:05:38.832Z,60.92
2022-10-01T02:08:22.077Z,60.99
2022-10-01T02:11:05.952Z,60.85
2022-10-01T02:13:43.529Z,61.02
2022-10-01T02:16:21.815Z,60.97
2022-10-01T02:18:59.096Z,60.94
2022-10-01T02:21:33.399Z,60.80
2022-10-01T02:24:08.587Z,60.79
2022-10-01T02:26:40.055Z,60.83
2022-10-01T02:29:12.658Z,60.93
2022-10-01T02:31:42.564Z,60.93
2022-10-01T02:34:18.252Z,61.07
2022-10-01T02:36:50.587Z,60.98
2022-10-01T02:39:23.312Z,61.05
2022-10-01T02:41:55.804Z,61.11
2022-10-01T02:44:31.842Z,61.11
2022-10-01T02:47:07.430Z,61.09
2022-10-01T02:49:40.758Z,61.10
2022-10-01T02:52:17.448Z,61.07
2022-10-01T02:54:54.848Z,61.03
2022-10-01T02:57:27.029Z,61.03
2022-10-01T02:59:59.264Z,61.01
2022-10-01T03:02:32.444Z,61.30
2022-10-01T03:05:01.916Z,61.27
2022-10-01T03:07:35.122Z,61.44
2022-10-01T03:10:05.994Z,61.72
2022-10-01T03:12:35.425Z,61.83
2022-10-01T03:15:06.725Z,61.95
2022-10-01T03:17:36.736Z,62.44
2022-10-01T03:20:07.977Z,62.53
2022-10-01T03:22:37.255Z,62.83
2022-10-01T03:25:07.458Z,62.66
2022-10-01T03:27:36.577Z,62.73
2022-10-01T03:30:07.776Z,62.55
2022-10-01T03:32:37.017Z,62.80
2022-10-01T03:35:07.876Z,62.96
2022-10-01T03:37:37.014Z,62.86
2022-10-01T03:40:08.260Z,63.03
2022-10-01T03:42:37.529Z,62.81
2022-10-01T03:45:08.215Z,62.85
2022-10-01T03:47:39.016Z,63.00
2022-10-01T03:50:10.351Z,62.92
2022-10-01T03:52:41.742Z,62.92
2022-10-01T03:55:11.506Z,63.11
2022-10-01T03:57:40.718Z,63.29
2022-10-01T04:00:13.672Z,63.03
2022-10-01T04:02:43.131Z,63.14
2022-10-01T04:05:12.280Z,63.26
2022-10-01T04:07:44.056Z,63.40
2022-10-01T04:10:13.463Z,63.54
2022-10-01T04:12:42.788Z,63.18
2022-10-01T04:15:12.328Z,63.29
2022-10-01T04:17:45.844Z,63.43
2022-10-01T04:20:15.853Z,63.54
2022-10-01T04:22:45.656Z,63.67
2022-10-01T04:25:15.443Z,63.51
2022-10-01T04:27:56.756Z,63.56
2022-10-01T04:30:27.348Z,63.49
2022-10-01T04:33:01.319Z,63.61
2022-10-01T04:35:31.515Z,63.72
2022-10-01T04:38:07.148Z,63.55
2022-10-01T04:40:37.603Z,63.53
2022-10-01T04:43:14.760Z,63.59
2022-10-01T04:45:45.705Z,63.67
2022-10-01T04:48:15.427Z,63.68
2022-10-01T04:50:44.635Z,63.84
2022-10-01T04:53:13.815Z,63.83
2022-10-01T04:55:43.840Z,63.88
2022-10-01T04:58:13.351Z,64.15
2022-10-01T05:00:43.744Z,64.17
2022-10-01T05:03:14.060Z,64.24
2022-10-01T05:05:44.423Z,64.01
2022-10-01T05:08:22.324Z,64.06
2022-10-01T05:10:53.981Z,64.27
2022-10-01T05:13:29.749Z,64.06
2022-10-01T05:16:22.229Z,64.16
2022-10-01T05:19:05.695Z,63.97
2022-10-01T05:21:40.276Z,63.92
2022-10-01T05:24:17.886Z,63.89
2022-10-01T05:26:47.488Z,63.96
2022-10-01T05:29:19.619Z,63.78
2022-10-01T05:31:50.492Z,63.79
2022-10-01T05:34:21.270Z,63.55
2022-10-01T05:36:50.845Z,63.58
2022-10-01T05:39:20.038Z,63.54
2022-10-01T05:41:49.408Z,63.31
2022-10-01T05:44:18.968Z,63.18
2022-10-01T05:46:48.628Z,62.98
2022-10-01T05:49:17.908Z,62.97
2022-10-01T05:51:47.245Z,63.04
2022-10-01T05:54:19.455Z,63.08
2022-10-01T05:56:49.886Z,63.19
2022-10-01T05:59:19.271Z,63.08
2022-10-01T06:01:49.208Z,62.94
2022-10-01T06:04:18.240Z,63.03
2022-10-01T06:06:47.333Z,62.97
2022-10-01T06:09:17.673Z,62.79
2022-10-01T06:11:48.368Z,62.55
2022-10-01T06:14:19.764Z,62.52
2022-10-01T06:16:53.497Z,62.67
2022-10-01T06:19:23.807Z,62.44
2022-10-01T06:21:53.316Z,62.55
2022-10-01T06:24:22.387Z,62.51
2022-10-01T06:26:51.620Z,62.39
2022-10-01T06:29:20.545Z,62.27
2022-10-01T06:31:49.923Z,62.24
2022-10-01T06:34:19.196Z,62.28
2022-10-01T06:36:48.299Z,62.08
2022-10-01T06:39:17.299Z,62.07
2022-10-01T06:41:48.568Z,61.70
2022-10-01T06:44:19.982Z,61.72
2022-10-01T06:46:50.721Z,61.49
2022-10-01T06:49:21.656Z,61.43
2022-10-01T06:52:09.313Z,61.13
2022-10-01T06:54:38.763Z,61.15
2022-10-01T06:57:08.007Z,61.26
2022-10-01T06:59:37.767Z,61.09
2022-10-01T07:02:06.819Z,61.06
2022-10-01T07:04:36.265Z,61.19
2022-10-01T07:07:07.210Z,61.11
2022-10-01T07:09:36.380Z,61.03
2022-10-01T07:12:05.762Z,60.99
2022-10-01T07:14:34.752Z,60.84
2022-10-01T07:17:03.630Z,60.68
2022-10-01T07:19:32.604Z,60.68
2022-10-01T07:22:01.587Z,60.42
2022-10-01T07:24:30.437Z,60.50
2022-10-01T07:27:01.663Z,60.40
2022-10-01T07:29:34.649Z,59.93
2022-10-01T07:32:08.042Z,60.03
2022-10-01T07:34:39.781Z,59.84
2022-10-01T07:37:09.703Z,59.71
2022-10-01T07:39:39.304Z,59.55
2022-10-01T07:42:09.001Z,59.27
2022-10-01T07:44:38.007Z,59.26
2022-10-01T07:47:06.792Z,58.92
2022-10-01T07:49:35.938Z,58.40
2022-10-01T07:52:09.677Z,58.37
2022-10-01T07:54:41.613Z,58.32
2022-10-01T07:57:10.616Z,58.17
2022-10-01T07:59:40.435Z,57.88
2022-10-01T08:02:15.673Z,57.92
2022-10-01T08:05:02.681Z,58.08
2022-10-01T08:07:32.100Z,57.62
2022-10-01T08:10:01.619Z,57.60
2022-10-01T08:12:30.780Z,57.54
2022-10-01T08:15:02.051Z,56.80
2022-10-01T08:17:31.226Z,56.85
2022-10-01T08:20:00.853Z,56.86
2022-10-01T08:22:30.158Z,56.77
2022-10-01T08:24:59.170Z,56.46
2022-10-01T08:27:36.451Z,56.32
2022-10-01T08:30:07.854Z,56.69
2022-10-01T08:32:37.084Z,56.75
2022-10-01T08:35:08.112Z,56.34
2022-10-01T08:37:37.566Z,56.04
2022-10-01T08:40:09.834Z,55.74
2022-10-01T08:42:51.617Z,55.43
2022-10-01T08:45:26.609Z,55.53
2022-10-01T08:48:05.087Z,54.99
2022-10-01T08:50:44.665Z,54.89
2022-10-01T08:53:22.450Z,54.56
2022-10-01T08:55:54.338Z,54.54
2022-10-01T08:58:29.580Z,54.24
2022-10-01T09:00:59.244Z,53.97
2022-10-01T09:03:36.478Z,53.88
2022-10-01T09:06:19.783Z,53.68
2022-10-01T09:09:03.294Z,53.36
2022-10-01T09:11:52.768Z,53.33
2022-10-01T09:14:40.478Z,53.08
2022-10-01T09:17:22.677Z,52.43
2022-10-01T09:20:05.257Z,52.12
2022-10-01T09:22:41.880Z,51.83
2022-10-01T09:25:19.965Z,51.45
2022-10-01T09:27:50.757Z,51.16
2022-10-01T09:30:24.250Z,50.69
2022-10-01T09:33:00.363Z,50.63
2022-10-01T09:35:39.066Z,50.45
2022-10-01T09:38:16.729Z,50.43
2022-10-01T09:40:54.447Z,50.31
2022-10-01T09:43:29.032Z,49.58
2022-10-01T09:45:58.729Z,48.76
2022-10-01T09:48:35.985Z,49.11
2022-10-01T09:51:10.880Z,48.90
2022-10-01T09:53:48.210Z,49.17
2022-10-01T09:56:27.129Z,48.97
2022-10-01T09:59:03.854Z,49.10
2022-10-01T10:01:43.354Z,48.92
2022-10-01T10:04:21.613Z,48.47
2022-10-01T10:07:03.072Z,48.33
2022-10-01T10:09:36.923Z,48.16
2022-10-01T10:12:10.779Z,48.05
2022-10-01T10:14:41.552Z,47.90
2022-10-01T10:17:17.197Z,47.90
2022-10-01T10:19:54.274Z,47.70
2022-10-01T10:22:26.154Z,47.11
2022-10-01T10:24:58.544Z,47.03
2022-10-01T10:27:30.589Z,47.13
2022-10-01T10:30:14.608Z,46.73
2022-10-01T10:32:46.593Z,46.01
2022-10-01T10:35:23.944Z,45.66
2022-10-01T10:37:56.752Z,44.93
2022-10-01T10:40:29.688Z,44.70
2022-10-01T10:43:02.321Z,44.25
2022-10-01T10:45:37.105Z,44.38
2022-10-01T10:48:17.926Z,44.12
2022-10-01T10:50:58.426Z,43.25
2022-10-01T10:53:47.331Z,43.25
2022-10-01T10:56:22.321Z,43.78
2022-10-01T10:58:54.887Z,43.89
2022-10-01T11:01:28.958Z,44.14
2022-10-01T11:04:01.339Z,44.05
2022-10-01T11:06:31.012Z,43.77
2022-10-01T11:09:04.388Z,43.18
2022-10-01T11:11:51.105Z,43.04
2022-10-01T11:14:32.367Z,41.74
2022-10-01T11:17:31.430Z,42.16
2022-10-01T11:20:20.978Z,42.55
2022-10-01T11:23:04.276Z,41.71
2022-10-01T11:25:46.591Z,40.07
2022-10-01T11:28:29.946Z,40.56
2022-10-01T11:31:09.783Z,39.96
2022-10-01T11:33:48.853Z,40.62
2022-10-01T11:36:28.539Z,40.99
2022-10-01T11:39:02.791Z,41.24
2022-10-01T11:41:39.215Z,41.12
2022-10-01T11:44:16.575Z,41.11
2022-10-01T11:46:58.424Z,41.41
2022-10-01T11:49:44.119Z,41.48
2022-10-01T11:52:23.050Z,41.18
2022-10-01T11:55:19.296Z,40.58
2022-10-01T11:58:11.513Z,40.30
2022-10-01T12:00:44.256Z,40.54
2022-10-01T12:03:23.548Z,40.27
2022-10-01T12:05:55.934Z,40.70
2022-10-01T12:08:31.387Z,40.75
2022-10-01T12:11:09.415Z,40.77
2022-10-01T12:13:44.497Z,40.91
2022-10-01T12:16:21.277Z,40.93
2022-10-01T12:18:55.887Z,40.34
2022-10-01T12:21:27.842Z,40.39
2022-10-01T12:24:03.412Z,40.33
2022-10-01T12:26:43.584Z,40.19
2022-10-01T12:29:18.018Z,39.81
2022-10-01T12:31:59.868Z,39.13
2022-10-01T12:34:39.278Z,39.38
2022-10-01T12:37:18.397Z,39.49
2022-10-01T12:40:01.801Z,39.08
2022-10-01T12:42:50.023Z,39.29
2022-10-01T12:45:30.228Z,39.30
2022-10-01T12:48:08.262Z,39.46
2022-10-01T12:50:49.102Z,39.49
2022-10-01T12:53:25.758Z,38.88
2022-10-01T12:56:15.333Z,38.34
2022-10-01T12:59:23.818Z,38.28
2022-10-01T13:02:10.175Z,38.54
2022-10-01T13:04:56.577Z,38.59
2022-10-01T13:07:55.030Z,38.30
2022-10-01T13:10:44.315Z,37.87
2022-10-01T13:13:18.259Z,37.54
2022-10-01T13:15:55.051Z,36.80
2022-10-01T13:18:44.748Z,36.25
2022-10-01T13:21:20.717Z,36.46
2022-10-01T13:23:56.974Z,36.87
2022-10-01T13:26:35.075Z,36.75
2022-10-01T13:29:19.249Z,36.91
2022-10-01T13:31:57.456Z,36.51
2022-10-01T13:34:41.819Z,36.22
2022-10-01T13:37:16.574Z,35.76
2022-10-01T13:39:47.124Z,36.02
2022-10-01T13:42:25.805Z,35.50
2022-10-01T13:44:57.784Z,35.36
2022-10-01T13:47:32.070Z,34.19
2022-10-01T13:50:04.167Z,34.70
2022-10-01T13:52:35.946Z,33.71
2022-10-01T13:55:05.997Z,33.81
2022-10-01T13:57:39.139Z,33.46
2022-10-01T14:00:23.545Z,33.76
2022-10-01T14:03:06.658Z,33.71
2022-10-01T14:05:39.716Z,33.93
2022-10-01T14:08:18.964Z,33.95
2022-10-01T14:11:14.625Z,33.61
2022-10-01T14:14:06.133Z,33.88
2022-10-01T14:16:41.791Z,33.87
2022-10-01T14:19:18.239Z,33.98
2022-10-01T14:22:01.477Z,33.87
2022-10-01T14:24:39.359Z,34.00
2022-10-01T14:27:18.382Z,33.91
2022-10-01T14:30:03.112Z,33.71
2022-10-01T14:32:47.674Z,33.85
2022-10-01T14:35:27.396Z,33.87
2022-10-01T14:38:00.628Z,34.31
2022-10-01T14:40:38.557Z,34.19
2022-10-01T14:43:17.850Z,34.44
2022-10-01T14:45:58.971Z,34.43
2022-10-01T14:48:30.419Z,34.60
2022-10-01T14:51:01.949Z,34.79
2022-10-01T14:53:34.901Z,34.90
2022-10-01T14:56:15.233Z,34.76
2022-10-01T14:58:46.747Z,34.93
2022-10-01T15:01:22.874Z,34.74
2022-10-01T15:03:55.509Z,35.12
2022-10-01T15:06:29.306Z,35.09
2022-10-01T15:09:11.782Z,35.14
2022-10-01T15:11:44.734Z,35.47
2022-10-01T15:14:19.154Z,35.78
2022-10-01T15:16:49.966Z,35.53
2022-10-01T15:19:22.894Z,35.60
2022-10-01T15:21:54.714Z,35.58
2022-10-01T15:28:25.062Z,35.71
2022-10-01T15:30:55.918Z,35.67
2022-10-01T15:33:28.265Z,35.61
2022-10-01T15:35:59.493Z,35.85
2022-10-01T15:38:31.090Z,35.75
2022-10-01T15:41:26.648Z,35.79
2022-10-01T15:43:52.318Z,35.86
2022-10-01T15:46:32.379Z,35.78
2022-10-01T15:49:20.661Z,35.80
2022-10-01T15:52:19.313Z,35.91
2022-10-01T15:55:05.381Z,35.98
2022-10-01T15:58:08.814Z,35.94
2022-10-01T16:00:57.843Z,36.20
2022-10-01T16:03:32.200Z,36.29
2022-10-01T16:06:03.018Z,36.30
2022-10-01T16:08:45.550Z,36.34
2022-10-01T16:11:23.654Z,36.29
2022-10-01T16:14:13.519Z,36.45
2022-10-01T16:16:42.617Z,36.35
2022-10-01T16:19:28.573Z,36.43
2022-10-01T16:22:22.593Z,36.54
2022-10-01T16:24:54.361Z,36.62
2022-10-01T16:27:28.961Z,36.76
2022-10-01T16:30:05.622Z,36.81
2022-10-01T16:32:35.995Z,37.00
2022-10-01T16:35:21.444Z,37.11
2022-10-01T16:37:52.949Z,37.20
2022-10-01T16:40:24.792Z,37.22
2022-10-01T16:42:54.980Z,37.39
2022-10-01T16:45:27.166Z,37.37
2022-10-01T16:47:57.671Z,37.60
2022-10-01T16:50:27.362Z,37.70
2022-10-01T16:53:00.786Z,37.61
2022-10-01T16:55:36.004Z,37.76
2022-10-01T16:58:06.503Z,37.86
2022-10-01T17:00:36.939Z,37.92
2022-10-01T17:03:12.036Z,38.07
2022-10-01T17:05:41.776Z,38.61
2022-10-01T17:08:36.822Z,39.02
2022-10-01T17:11:11.887Z,39.35
2022-10-01T17:13:41.983Z,39.76
2022-10-01T17:16:11.359Z,39.78
2022-10-01T17:18:40.315Z,40.33
2022-10-01T17:21:12.471Z,40.32
2022-10-01T17:23:43.239Z,40.59
2022-10-01T17:26:12.755Z,40.89
2022-10-01T17:28:42.406Z,41.03
2022-10-01T17:31:16.993Z,41.56
2022-10-01T17:33:47.027Z,41.61
2022-10-01T17:36:17.333Z,42.02
2022-10-01T17:38:46.342Z,42.88
2022-10-01T17:41:16.160Z,42.96
2022-10-01T17:43:47.986Z,43.20
2022-10-01T17:46:17.399Z,43.41
2022-10-01T17:48:48.871Z,43.32
2022-10-01T17:51:24.683Z,44.23
2022-10-01T17:54:02.134Z,44.01
2022-10-01T17:56:32.363Z,44.24
2022-10-01T17:59:02.022Z,44.22
2022-10-01T18:01:32.058Z,44.71
2022-10-01T18:04:03.382Z,44.58
2022-10-01T18:06:33.014Z,45.12
2022-10-01T18:09:02.806Z,45.66
2022-10-01T18:11:34.955Z,45.75
2022-10-01T18:14:05.829Z,45.89
2022-10-01T18:16:35.924Z,45.93
2022-10-01T18:21:54.833Z,46.22
2022-10-01T18:24:24.215Z,46.48
2022-10-01T18:26:53.855Z,46.53
2022-10-01T18:29:25.032Z,46.35
2022-10-01T18:31:59.816Z,46.51
2022-10-01T18:34:35.845Z,46.95
2022-10-01T18:37:08.952Z,47.18
2022-10-01T18:39:43.622Z,47.70
2022-10-01T18:42:19.553Z,47.32
2022-10-01T18:44:56.048Z,47.80
2022-10-01T18:47:35.362Z,48.09
2022-10-01T18:50:17.561Z,48.20
2022-10-01T18:52:59.001Z,48.54
2022-10-01T18:55:50.585Z,48.54
2022-10-01T18:58:36.371Z,48.98
2022-10-01T19:01:14.698Z,49.42
2022-10-01T19:04:01.396Z,49.23
2022-10-01T19:06:57.657Z,49.12
2022-10-01T19:09:38.122Z,49.26
2022-10-01T19:12:26.764Z,49.30
2022-10-01T19:15:03.626Z,49.50
2022-10-01T19:17:47.672Z,49.91
2022-10-01T19:20:30.053Z,49.96
2022-10-01T19:23:13.559Z,49.78
2022-10-01T19:25:50.050Z,49.97
2022-10-01T19:28:35.412Z,50.24
2022-10-01T19:31:12.429Z,50.08
2022-10-01T19:33:49.072Z,50.22
2022-10-01T19:36:24.225Z,50.23
2022-10-01T19:38:55.669Z,50.67
2022-10-01T19:41:35.674Z,50.69
2022-10-01T19:44:13.531Z,50.99
2022-10-01T19:46:44.772Z,50.66
2022-10-01T19:49:17.543Z,50.72
2022-10-01T19:51:51.906Z,51.03
2022-10-01T19:54:24.802Z,51.09
2022-10-01T19:56:57.598Z,51.10
2022-10-01T19:59:28.893Z,51.37
2022-10-01T20:02:04.057Z,51.23
2022-10-01T20:04:38.236Z,51.20
2022-10-01T20:07:12.606Z,51.62
2022-10-01T20:09:46.270Z,51.81
2022-10-01T20:12:26.313Z,51.67
2022-10-01T20:15:11.495Z,52.35
2022-10-01T20:17:55.929Z,52.25
2022-10-01T20:20:32.080Z,52.88
2022-10-01T20:23:32.585Z,53.78
2022-10-01T20:26:13.969Z,53.85
2022-10-01T20:28:51.392Z,54.90
2022-10-01T20:31:24.075Z,54.79
2022-10-01T20:34:04.497Z,54.55
2022-10-01T20:36:43.636Z,55.80
2022-10-01T20:39:19.108Z,55.76
2022-10-01T20:41:52.872Z,56.42
2022-10-01T20:44:27.152Z,57.42
2022-10-01T20:47:04.969Z,57.39
2022-10-01T20:49:40.069Z,57.69
2022-10-01T20:52:18.487Z,57.99
2022-10-01T20:54:51.904Z,57.03
2022-10-01T20:57:30.865Z,57.38
2022-10-01T21:00:07.478Z,57.69
2022-10-01T21:02:42.375Z,58.78
2022-10-01T21:05:22.933Z,58.43
2022-10-01T21:07:57.597Z,59.26
2022-10-01T21:10:35.994Z,59.03
2022-10-01T21:13:13.399Z,60.76
2022-10-01T21:15:56.056Z,59.67
2022-10-01T21:18:38.768Z,59.22
2022-10-01T21:21:19.552Z,60.06
2022-10-01T21:24:05.701Z,61.57
2022-10-01T21:26:45.593Z,62.37
2022-10-01T21:29:37.107Z,64.46
2022-10-01T21:32:18.200Z,66.96
2022-10-01T21:35:02.724Z,66.70
2022-10-01T21:37:38.404Z,65.98
2022-10-01T21:40:19.626Z,67.25
2022-10-01T21:43:04.750Z,68.40
2022-10-01T21:45:45.214Z,69.02
2022-10-01T21:48:31.027Z,71.05
2022-10-01T21:51:07.202Z,72.50
2022-10-01T21:54:07.958Z,72.05
2022-10-01T21:57:02.078Z,72.82
2022-10-01T21:59:50.692Z,75.47
2022-10-01T22:02:34.281Z,74.70
2022-10-01T22:05:11.534Z,74.47
2022-10-01T22:07:48.759Z,76.61
2022-10-01T22:10:24.392Z,75.53
2022-10-01T22:12:58.475Z,77.45
2022-10-01T22:15:33.397Z,75.53
2022-10-01T22:18:06.353Z,75.98
2022-10-01T22:20:39.187Z,74.72
2022-10-01T22:23:12.468Z,74.41
2022-10-01T22:25:46.638Z,72.70
2022-10-01T22:28:21.188Z,73.28
2022-10-01T22:30:54.194Z,73.86
2022-10-01T22:33:29.551Z,74.01
2022-10-01T22:36:06.127Z,75.26
2022-10-01T22:38:40.727Z,75.47
2022-10-01T22:41:13.855Z,75.49
2022-10-01T22:43:42.887Z,74.75
2022-10-01T22:46:43.318Z,74.69
2022-10-01T22:49:25.904Z,76.26
2022-10-01T22:52:07.927Z,76.23
2022-10-01T22:54:52.376Z,75.80
2022-10-01T22:57:42.492Z,75.40
2022-10-01T23:00:13.963Z,74.49
2022-10-01T23:02:47.933Z,74.18
2022-10-01T23:05:35.261Z,73.85
2022-10-01T23:08:12.388Z,74.64
2022-10-01T23:10:53.237Z,74.22
2022-10-01T23:13:29.989Z,74.70
2022-10-01T23:16:08.801Z,75.51
2022-10-01T23:18:47.791Z,75.78
2022-10-01T23:21:28.565Z,74.83
2022-10-01T23:24:08.766Z,75.10
2022-10-01T23:26:45.339Z,75.20
2022-10-01T23:29:32.435Z,76.23
2022-10-01T23:32:15.247Z,76.29
2022-10-01T23:34:52.391Z,75.88
2022-10-01T23:37:40.942Z,75.58
2022-10-01T23:40:13.618Z,76.58
2022-10-01T23:42:53.285Z,76.50
2022-10-01T23:45:28.163Z,76.61
2022-10-01T23:48:04.539Z,77.16
2022-10-01T23:50:39.822Z,77.75
2022-10-01T23:53:15.430Z,77.60
2022-10-01T23:56:08.048Z,78.26
2022-10-01T23:58:43.622Z,79.39
